Time;durP1;ratioP1;P1;durP2;ratioP2;P2;SDS_P1;SDS_P2;PMS_P1;PMS_P2;Temp;Humidity;BMP_temperature;BMP_pressure;BME280_temperature;BME280_humidity;BME280_pressure;Samples;Min_cycle;Max_cycle;Signal;HPM_P1;HPM_P2
2022/01/28 00:04:52;;;;;;;33.97;16.15;;;;;;;;;;5002124;28;20388;-46
2022/01/28 00:07:18;;;;;;;31.73;16.33;;;;;;;;;;5003210;28;20037;-44
2022/01/28 00:09:43;;;;;;;29.02;16.23;;;;;;;;;;4994238;28;20566;-44
2022/01/28 00:12:10;;;;;;;32.70;15.20;;;;;;;;;;4998541;28;20398;-44
2022/01/28 00:38:44;;;;;;;29.83;15.32;;;;;;;;;;4993377;28;20093;-44
2022/01/28 00:41:11;;;;;;;30.70;16.38;;;;;;;;;;4992873;28;20045;-44
2022/01/28 00:43:37;;;;;;;36.78;16.83;;;;;;;;;;4993293;28;20113;-44
2022/01/28 00:46:03;;;;;;;32.83;16.20;;;;;;;;;;4992968;28;20113;-45
2022/01/28 00:48:29;;;;;;;31.10;16.02;;;;;;;;;;4993263;28;20436;-45
2022/01/28 00:50:54;;;;;;;34.13;15.95;;;;;;;;;;4993230;28;20109;-44
2022/01/28 00:53:20;;;;;;;25.35;13.73;;;;;;;;;;4992950;28;20030;-45
2022/01/28 00:55:45;;;;;;;31.83;17.02;;;;;;;;;;4992921;28;20429;-44
2022/01/28 00:58:11;;;;;;;35.70;17.17;;;;;;;;;;4992852;28;20031;-44
2022/01/28 01:00:36;;;;;;;34.50;17.55;;;;;;;;;;4993061;28;20034;-44
2022/01/28 01:03:02;;;;;;;31.25;16.48;;;;;;;;;;4992837;28;20026;-44
2022/01/28 01:05:32;;;;;;;32.63;16.60;;;;;;;;;;4993132;28;20023;-45
2022/01/28 01:07:58;;;;;;;31.85;16.23;;;;;;;;;;4992866;28;20030;-45
2022/01/28 01:10:25;;;;;;;31.38;16.08;;;;;;;;;;4992796;28;20042;-44
2022/01/28 01:12:50;;;;;;;30.23;16.80;;;;;;;;;;4992789;28;20054;-45
2022/01/28 01:15:18;;;;;;;30.08;16.50;;;;;;;;;;4992820;28;20471;-45
2022/01/28 01:20:36;;;;;;;34.83;17.65;;;;;;;;;;4992702;28;20394;-44
2022/01/28 01:25:33;;;;;;;32.17;17.35;;;;;;;;;;4996327;28;20030;-45
2022/01/28 01:27:58;;;;;;;38.33;18.58;;;;;;;;;;4996618;28;20026;-45
2022/01/28 01:30:30;;;;;;;31.95;17.00;;;;;;;;;;4994949;28;20426;-45
2022/01/28 01:32:56;;;;;;;34.03;17.55;;;;;;;;;;4996201;28;20027;-45
2022/01/28 01:35:21;;;;;;;35.50;19.08;;;;;;;;;;4996117;28;20037;-44
2022/01/28 01:37:46;;;;;;;29.88;17.48;;;;;;;;;;4996136;28;20033;-44
2022/01/28 01:40:13;;;;;;;35.33;18.88;;;;;;;;;;4996022;28;20061;-44
2022/01/28 01:42:49;;;;;;;35.72;18.25;;;;;;;;;;4996026;28;20077;-45
2022/01/28 01:53:08;;;;;;;34.88;18.83;;;;;;;;;;4996173;28;20465;-44
2022/01/28 01:55:33;;;;;;;40.53;20.02;;;;;;;;;;4995829;28;20026;-45
2022/01/28 01:57:59;;;;;;;34.20;18.30;;;;;;;;;;4995724;28;20470;-44
2022/01/28 02:00:25;;;;;;;34.17;17.25;;;;;;;;;;4995569;28;20073;-45
2022/01/28 02:02:50;;;;;;;35.95;16.83;;;;;;;;;;4995643;28;20034;-45
2022/01/28 02:05:16;;;;;;;31.13;17.25;;;;;;;;;;4995667;28;20113;-44
2022/01/28 02:07:45;;;;;;;42.20;18.98;;;;;;;;;;4995596;28;20434;-45
2022/01/28 02:10:10;;;;;;;43.15;19.98;;;;;;;;;;4995462;28;20110;-44
2022/01/28 02:12:50;;;;;;;39.85;20.63;;;;;;;;;;4995778;28;20054;-45
2022/01/28 02:15:17;;;;;;;37.58;20.80;;;;;;;;;;4995856;28;20033;-44
2022/01/28 02:17:42;;;;;;;41.63;20.63;;;;;;;;;;4995668;28;20081;-45
2022/01/28 02:20:16;;;;;;;41.95;20.50;;;;;;;;;;4995529;28;20469;-45
2022/01/28 02:22:42;;;;;;;42.83;20.80;;;;;;;;;;4995381;28;20097;-45
2022/01/28 02:25:19;;;;;;;42.25;20.83;;;;;;;;;;4995503;28;20129;-44
2022/01/28 02:27:45;;;;;;;37.08;19.35;;;;;;;;;;4995283;28;20081;-45
2022/01/28 02:30:11;;;;;;;40.33;20.55;;;;;;;;;;4995102;28;20047;-45
2022/01/28 02:32:38;;;;;;;40.42;21.30;;;;;;;;;;4995417;28;20084;-45
2022/01/28 02:35:04;;;;;;;42.53;19.90;;;;;;;;;;4994784;28;20026;-45
2022/01/28 02:37:29;;;;;;;37.22;19.75;;;;;;;;;;4994142;28;20034;-44
2022/01/28 02:39:55;;;;;;;33.83;19.15;;;;;;;;;;4994974;28;20382;-45
2022/01/28 02:42:30;;;;;;;40.75;20.55;;;;;;;;;;4994904;28;20019;-45
2022/01/28 02:44:57;;;;;;;39.35;20.70;;;;;;;;;;4994874;28;20034;-45
2022/01/28 02:47:36;;;;;;;36.80;20.08;;;;;;;;;;4995040;28;20030;-44
2022/01/28 02:50:03;;;;;;;43.25;19.42;;;;;;;;;;4995134;28;20026;-45
2022/01/28 02:52:38;;;;;;;38.58;19.95;;;;;;;;;;4995003;28;20111;-45
2022/01/28 02:55:09;;;;;;;38.40;20.63;;;;;;;;;;4994938;28;20117;-45
2022/01/28 02:57:39;;;;;;;37.92;18.67;;;;;;;;;;4994947;28;20034;-46
2022/01/28 03:00:05;;;;;;;41.78;20.05;;;;;;;;;;4994762;28;20030;-46
2022/01/28 03:02:31;;;;;;;41.60;20.48;;;;;;;;;;4994857;28;20425;-45
2022/01/28 03:05:28;;;;;;;42.85;20.70;;;;;;;;;;4994481;28;20033;-45
2022/01/28 03:07:47;;;;;;;35.58;18.45;;;;;;;;;;4994375;28;20062;-45
2022/01/28 03:10:27;;;;;;;37.25;19.83;;;;;;;;;;4994688;28;20034;-46
2022/01/28 03:13:13;;;;;;;38.72;19.65;;;;;;;;;;4994630;28;20026;-45
2022/01/28 03:15:41;;;;;;;36.35;18.83;;;;;;;;;;4994597;28;20250;-45
2022/01/28 03:18:13;;;;;;;32.35;17.73;;;;;;;;;;4994500;28;20033;-45
2022/01/28 03:23:05;;;;;;;37.05;18.50;;;;;;;;;;4994197;28;20069;-44
2022/01/28 03:25:31;;;;;;;34.92;18.75;;;;;;;;;;4994433;28;20031;-45
2022/01/28 03:27:59;;;;;;;38.80;19.23;;;;;;;;;;4994116;28;20034;-45
2022/01/28 03:30:25;;;;;;;41.83;20.63;;;;;;;;;;4993848;28;20531;-45
2022/01/28 03:32:50;;;;;;;38.25;18.75;;;;;;;;;;4994313;28;20030;-45
2022/01/28 03:35:18;;;;;;;36.08;18.77;;;;;;;;;;4994282;28;20069;-44
2022/01/28 03:37:43;;;;;;;34.53;18.33;;;;;;;;;;4993859;28;20474;-45
2022/01/28 03:40:09;;;;;;;39.25;19.40;;;;;;;;;;4994040;28;20053;-44
2022/01/28 03:42:36;;;;;;;34.90;18.38;;;;;;;;;;4992603;28;20030;-44
2022/01/28 03:45:02;;;;;;;36.05;17.58;;;;;;;;;;4993773;28;20070;-44
2022/01/28 03:47:27;;;;;;;33.42;16.55;;;;;;;;;;4992976;28;20505;-45
2022/01/28 03:49:53;;;;;;;35.40;17.73;;;;;;;;;;4993645;28;20038;-45
2022/01/28 03:52:18;;;;;;;34.15;16.65;;;;;;;;;;4993683;28;20026;-44
2022/01/28 03:54:44;;;;;;;32.03;16.67;;;;;;;;;;4993649;28;20031;-44
2022/01/28 03:57:09;;;;;;;31.08;15.45;;;;;;;;;;4993469;28;20105;-45
2022/01/28 03:59:35;;;;;;;30.60;16.27;;;;;;;;;;4993673;28;20022;-44
2022/01/28 04:02:04;;;;;;;27.73;14.70;;;;;;;;;;4993789;28;20419;-45
2022/01/28 04:12:33;;;;;;;25.60;13.88;;;;;;;;;;4993653;28;20033;-45
2022/01/28 04:17:33;;;;;;;23.00;11.65;;;;;;;;;;4993640;28;20482;-44
2022/01/28 04:19:58;;;;;;;20.30;9.77;;;;;;;;;;4993225;28;20036;-45
2022/01/28 04:22:25;;;;;;;17.92;9.80;;;;;;;;;;4993290;28;20437;-45
2022/01/28 04:24:51;;;;;;;16.10;8.98;;;;;;;;;;4993256;28;20030;-45
2022/01/28 04:27:16;;;;;;;16.08;8.73;;;;;;;;;;4993214;28;20033;-45
2022/01/28 04:29:43;;;;;;;14.85;8.90;;;;;;;;;;4993141;28;20062;-45
2022/01/28 04:32:09;;;;;;;13.65;8.10;;;;;;;;;;4993186;28;20682;-45
2022/01/28 04:34:34;;;;;;;11.13;6.65;;;;;;;;;;4993390;28;20097;-45
2022/01/28 04:40:04;;;;;;;11.80;5.22;;;;;;;;;;4993313;28;20030;-45
2022/01/28 04:42:48;;;;;;;8.00;5.07;;;;;;;;;;4992980;28;20034;-45
2022/01/28 05:03:29;;;;;;;6.53;4.32;;;;;;;;;;4994903;28;20023;-45
2022/01/28 05:11:26;;;;;;;5.82;3.83;;;;;;;;;;4994871;28;20038;-45
2022/01/28 05:27:09;;;;;;;4.47;3.40;;;;;;;;;;4996289;28;20565;-45
2022/01/28 05:29:35;;;;;;;5.97;3.25;;;;;;;;;;4995805;28;20450;-46
2022/01/28 05:32:02;;;;;;;19.27;3.80;;;;;;;;;;4996103;28;20538;-44
2022/01/28 05:34:27;;;;;;;9.75;3.65;;;;;;;;;;4996740;28;20375;-45
2022/01/28 05:36:54;;;;;;;10.13;3.50;;;;;;;;;;4996322;28;20031;-45
2022/01/28 05:39:19;;;;;;;7.05;3.58;;;;;;;;;;4995903;28;20536;-45
2022/01/28 05:41:45;;;;;;;8.93;3.35;;;;;;;;;;4995985;28;20113;-44
2022/01/28 05:44:10;;;;;;;6.38;3.58;;;;;;;;;;4996244;28;20030;-46
2022/01/28 05:46:36;;;;;;;5.13;3.03;;;;;;;;;;4995056;28;20386;-45
2022/01/28 05:49:01;;;;;;;7.78;3.72;;;;;;;;;;4996126;28;20023;-45
2022/01/28 05:51:27;;;;;;;4.93;3.35;;;;;;;;;;4995860;28;20037;-45
2022/01/28 05:53:59;;;;;;;5.10;3.40;;;;;;;;;;4995733;28;20030;-46
2022/01/28 05:56:26;;;;;;;5.60;4.03;;;;;;;;;;4995761;28;20034;-45
2022/01/28 05:58:51;;;;;;;7.50;3.97;;;;;;;;;;4995933;28;20023;-46
2022/01/28 06:01:17;;;;;;;6.00;3.67;;;;;;;;;;4994320;28;20040;-46
2022/01/28 06:03:44;;;;;;;6.28;4.22;;;;;;;;;;4995597;28;20077;-45
2022/01/28 06:06:18;;;;;;;5.75;3.85;;;;;;;;;;4995872;28;20022;-46
2022/01/28 06:08:43;;;;;;;7.68;4.05;;;;;;;;;;4995571;28;20057;-45
2022/01/28 06:11:09;;;;;;;9.20;5.03;;;;;;;;;;4994580;28;20057;-45
2022/01/28 06:13:34;;;;;;;5.47;3.67;;;;;;;;;;4995418;28;20121;-45
2022/01/28 06:15:59;;;;;;;5.32;3.38;;;;;;;;;;4995371;28;20026;-46
2022/01/28 06:18:25;;;;;;;5.03;3.10;;;;;;;;;;4995434;28;20014;-48
2022/01/28 06:20:51;;;;;;;4.30;2.90;;;;;;;;;;4995489;28;20026;-45
2022/01/28 06:23:16;;;;;;;4.78;3.17;;;;;;;;;;4995240;28;20022;-45
2022/01/28 06:25:43;;;;;;;5.35;3.25;;;;;;;;;;4995140;28;20029;-45
2022/01/28 06:28:09;;;;;;;5.65;3.65;;;;;;;;;;4995431;28;20022;-46
2022/01/28 06:30:34;;;;;;;6.05;4.03;;;;;;;;;;4995051;28;20043;-46
2022/01/28 06:33:00;;;;;;;7.45;3.90;;;;;;;;;;4995112;28;20026;-48
2022/01/28 06:35:25;;;;;;;8.15;3.28;;;;;;;;;;4995250;28;20381;-46
2022/01/28 06:37:51;;;;;;;7.38;3.90;;;;;;;;;;4995157;28;20462;-46
2022/01/28 06:40:17;;;;;;;8.27;4.70;;;;;;;;;;4994767;28;20486;-45
2022/01/28 06:42:43;;;;;;;6.20;3.85;;;;;;;;;;4994967;28;20069;-44
2022/01/28 06:45:09;;;;;;;5.70;3.92;;;;;;;;;;4995155;28;20030;-46
2022/01/28 06:47:35;;;;;;;5.35;3.60;;;;;;;;;;4994656;28;20028;-44
2022/01/28 06:50:04;;;;;;;7.80;3.75;;;;;;;;;;4994701;28;20113;-47
2022/01/28 06:52:30;;;;;;;7.93;4.28;;;;;;;;;;4994598;28;20105;-45
2022/01/28 06:54:56;;;;;;;7.72;4.10;;;;;;;;;;4993444;28;20072;-45
2022/01/28 06:57:21;;;;;;;9.02;4.85;;;;;;;;;;4994559;28;20046;-48
2022/01/28 06:59:47;;;;;;;9.15;4.93;;;;;;;;;;4994479;28;20389;-47
2022/01/28 07:02:12;;;;;;;8.98;5.55;;;;;;;;;;4993303;28;20022;-44
2022/01/28 07:04:38;;;;;;;8.90;5.05;;;;;;;;;;4994900;28;20034;-44
2022/01/28 07:07:05;;;;;;;16.73;5.97;;;;;;;;;;4994686;28;20383;-45
2022/01/28 07:09:31;;;;;;;13.68;6.78;;;;;;;;;;4994608;28;20042;-49
2022/01/28 07:11:56;;;;;;;9.40;5.85;;;;;;;;;;4994606;28;20046;-47
2022/01/28 07:14:22;;;;;;;11.57;4.75;;;;;;;;;;4994258;28;20387;-47
2022/01/28 07:16:47;;;;;;;10.43;4.82;;;;;;;;;;4994477;28;20387;-45
2022/01/28 07:19:13;;;;;;;10.80;5.10;;;;;;;;;;4994547;28;20378;-45
2022/01/28 07:21:38;;;;;;;10.88;5.03;;;;;;;;;;4993903;28;20447;-47
2022/01/28 07:24:04;;;;;;;11.63;4.47;;;;;;;;;;4994112;28;20109;-45
2022/01/28 07:26:30;;;;;;;10.40;5.03;;;;;;;;;;4994029;28;20474;-45
2022/01/28 07:28:55;;;;;;;9.60;4.20;;;;;;;;;;4976488;28;20045;-46
2022/01/28 07:31:21;;;;;;;8.13;3.75;;;;;;;;;;4994338;28;20113;-46
2022/01/28 07:33:47;;;;;;;6.60;3.75;;;;;;;;;;4992571;28;20033;-46
2022/01/28 07:36:13;;;;;;;9.45;4.03;;;;;;;;;;4994208;28;20113;-45
2022/01/28 07:38:38;;;;;;;6.32;3.90;;;;;;;;;;4994102;28;20041;-46
2022/01/28 07:41:05;;;;;;;10.05;3.95;;;;;;;;;;4993775;28;20038;-45
2022/01/28 07:43:31;;;;;;;5.90;3.53;;;;;;;;;;4993703;28;20504;-46
2022/01/28 07:45:57;;;;;;;5.80;3.13;;;;;;;;;;4992554;28;20026;-45
2022/01/28 07:48:22;;;;;;;5.53;3.30;;;;;;;;;;4993987;28;20030;-45
2022/01/28 07:50:47;;;;;;;3.58;2.40;;;;;;;;;;4993705;28;20104;-44
2022/01/28 07:53:16;;;;;;;3.63;2.30;;;;;;;;;;4993645;28;20030;-45
2022/01/28 07:55:42;;;;;;;3.70;2.30;;;;;;;;;;4993714;28;20027;-45
2022/01/28 07:58:08;;;;;;;15.55;6.20;;;;;;;;;;4991892;28;20022;-47
2022/01/28 08:00:33;;;;;;;7.10;3.97;;;;;;;;;;4992794;28;20023;-54
2022/01/28 08:02:59;;;;;;;11.02;4.93;;;;;;;;;;4993738;28;20038;-55
2022/01/28 08:05:25;;;;;;;9.80;4.50;;;;;;;;;;4991837;28;20458;-56
2022/01/28 08:07:51;;;;;;;11.70;4.15;;;;;;;;;;4991366;28;20033;-46
2022/01/28 08:10:19;;;;;;;7.07;3.47;;;;;;;;;;4991763;28;20030;-56
2022/01/28 08:12:50;;;;;;;7.80;3.70;;;;;;;;;;4994262;28;20025;-51
2022/01/28 08:15:16;;;;;;;4.97;2.63;;;;;;;;;;5005853;28;20433;-49
2022/01/28 08:17:42;;;;;;;5.78;3.22;;;;;;;;;;5003005;28;20033;-45
2022/01/28 08:20:08;;;;;;;4.28;2.70;;;;;;;;;;5003234;28;20030;-50
2022/01/28 08:22:46;;;;;;;4.22;2.50;;;;;;;;;;5002818;28;20018;-50
2022/01/28 08:25:12;;;;;;;5.07;1.88;;;;;;;;;;4995061;28;20034;-44
2022/01/28 08:27:38;;;;;;;4.35;1.98;;;;;;;;;;4993905;28;20548;-49
2022/01/28 08:30:04;;;;;;;4.90;2.05;;;;;;;;;;4997154;28;20046;-48
2022/01/28 08:32:29;;;;;;;3.92;1.60;;;;;;;;;;5000308;28;20525;-46
2022/01/28 08:34:54;;;;;;;2.13;1.63;;;;;;;;;;5002092;28;20100;-44
2022/01/28 08:37:20;;;;;;;7.35;1.90;;;;;;;;;;5001370;28;20157;-46
2022/01/28 08:39:45;;;;;;;5.50;1.92;;;;;;;;;;5001084;28;20112;-56
2022/01/28 08:42:13;;;;;;;17.35;1.60;;;;;;;;;;5002609;28;20045;-50
2022/01/28 08:44:38;;;;;;;7.18;1.48;;;;;;;;;;5000775;28;20022;-46
2022/01/28 08:47:04;;;;;;;5.22;1.45;;;;;;;;;;5001574;28;20152;-55
2022/01/28 08:49:29;;;;;;;4.97;1.77;;;;;;;;;;5002190;28;20527;-48
2022/01/28 08:51:55;;;;;;;2.28;1.70;;;;;;;;;;4999916;28;20022;-54
2022/01/28 08:54:20;;;;;;;3.15;1.75;;;;;;;;;;5000824;28;20169;-56
2022/01/28 08:56:46;;;;;;;8.15;2.08;;;;;;;;;;5001218;28;20111;-52
2022/01/28 08:59:11;;;;;;;6.13;1.80;;;;;;;;;;4994141;28;20022;-46
2022/01/28 09:01:37;;;;;;;7.68;1.80;;;;;;;;;;4992352;28;20023;-54
2022/01/28 09:04:02;;;;;;;8.57;1.60;;;;;;;;;;4992858;28;20387;-44
2022/01/28 09:06:28;;;;;;;8.65;1.65;;;;;;;;;;4993042;28;20364;-58
2022/01/28 09:08:55;;;;;;;4.00;1.70;;;;;;;;;;4992269;28;20382;-46
2022/01/28 09:13:47;;;;;;;3.45;1.73;;;;;;;;;;4992719;28;20036;-49
2022/01/28 09:16:13;;;;;;;5.20;1.75;;;;;;;;;;4992954;28;20525;-48
2022/01/28 09:18:39;;;;;;;5.95;2.00;;;;;;;;;;4992915;28;20118;-58
2022/01/28 09:21:04;;;;;;;13.63;2.08;;;;;;;;;;4992457;28;20026;-47
2022/01/28 09:23:30;;;;;;;9.30;1.77;;;;;;;;;;4992551;28;20034;-44
2022/01/28 09:25:55;;;;;;;6.25;2.25;;;;;;;;;;4992503;28;20026;-54
2022/01/28 09:28:21;;;;;;;7.90;1.80;;;;;;;;;;4992626;28;20050;-57
2022/01/28 09:30:47;;;;;;;2.42;1.80;;;;;;;;;;4990794;28;20038;-52
2022/01/28 09:33:12;;;;;;;7.07;2.15;;;;;;;;;;4992545;28;20151;-57
2022/01/28 09:35:41;;;;;;;5.38;2.30;;;;;;;;;;4992282;28;20026;-52
2022/01/28 09:38:07;;;;;;;4.18;2.10;;;;;;;;;;4992704;28;20030;-57
2022/01/28 09:40:33;;;;;;;10.27;1.70;;;;;;;;;;4992631;28;20026;-57
2022/01/28 09:43:00;;;;;;;6.93;1.67;;;;;;;;;;4992129;28;20026;-59
2022/01/28 09:45:25;;;;;;;6.65;1.95;;;;;;;;;;4992351;28;20465;-58
2022/01/28 09:47:54;;;;;;;6.80;1.60;;;;;;;;;;4995804;28;20030;-46
2022/01/28 09:50:22;;;;;;;9.10;1.77;;;;;;;;;;4996059;28;20390;-49
2022/01/28 09:52:49;;;;;;;11.15;1.55;;;;;;;;;;4996003;28;20042;-52
2022/01/28 09:55:15;;;;;;;5.28;1.40;;;;;;;;;;4995800;28;20029;-49
2022/01/28 09:57:40;;;;;;;6.80;1.75;;;;;;;;;;4995660;28;20026;-54
2022/01/28 10:00:08;;;;;;;5.18;1.38;;;;;;;;;;4995726;28;20118;-45
2022/01/28 10:02:56;;;;;;;4.55;1.40;;;;;;;;;;4995839;28;20030;-52
2022/01/28 10:05:41;;;;;;;5.68;1.63;;;;;;;;;;4995839;28;20030;-53
2022/01/28 10:08:15;;;;;;;4.30;1.40;;;;;;;;;;4995537;28;20385;-46
2022/01/28 10:11:00;;;;;;;7.82;1.80;;;;;;;;;;4995725;28;20029;-50
2022/01/28 10:16:04;;;;;;;4.90;1.95;;;;;;;;;;4995469;28;20026;-51
2022/01/28 10:18:45;;;;;;;5.72;1.23;;;;;;;;;;4995569;28;20105;-51
2022/01/28 10:21:42;;;;;;;9.80;1.40;;;;;;;;;;4995516;28;20037;-52
2022/01/28 10:24:17;;;;;;;11.98;1.58;;;;;;;;;;4995463;28;20033;-46
2022/01/28 10:26:53;;;;;;;3.10;1.13;;;;;;;;;;4994181;28;20034;-50
2022/01/28 10:29:25;;;;;;;4.18;1.40;;;;;;;;;;4993275;28;20146;-49
2022/01/28 10:31:54;;;;;;;7.22;1.60;;;;;;;;;;4993180;28;20073;-48
2022/01/28 10:34:23;;;;;;;4.75;1.77;;;;;;;;;;4993200;28;20111;-51
2022/01/28 10:36:50;;;;;;;4.72;2.10;;;;;;;;;;4993556;28;20039;-48
2022/01/28 10:39:22;;;;;;;11.73;2.28;;;;;;;;;;4993099;28;20036;-47
2022/01/28 10:41:52;;;;;;;13.00;2.28;;;;;;;;;;4991772;28;20100;-49
2022/01/28 10:44:18;;;;;;;7.80;2.55;;;;;;;;;;4993473;28;20093;-50
2022/01/28 10:46:55;;;;;;;5.50;1.50;;;;;;;;;;4993278;28;20070;-47
2022/01/28 10:49:27;;;;;;;12.70;2.22;;;;;;;;;;4993119;28;20124;-48
2022/01/28 10:51:52;;;;;;;8.73;1.50;;;;;;;;;;4993239;28;20489;-48
2022/01/28 10:54:22;;;;;;;3.67;1.40;;;;;;;;;;4993210;28;20105;-49
2022/01/28 10:56:57;;;;;;;4.85;1.75;;;;;;;;;;4992934;28;20031;-48
2022/01/28 10:59:41;;;;;;;3.72;1.50;;;;;;;;;;4993194;28;20117;-48
2022/01/28 11:02:07;;;;;;;4.00;1.15;;;;;;;;;;4992992;28;20382;-49
2022/01/28 11:04:36;;;;;;;11.27;1.85;;;;;;;;;;4992771;28;20109;-51
2022/01/28 11:07:03;;;;;;;9.02;1.10;;;;;;;;;;4993105;28;20030;-51
2022/01/28 11:09:30;;;;;;;10.63;1.45;;;;;;;;;;4992597;28;20509;-49
2022/01/28 11:11:56;;;;;;;11.43;1.23;;;;;;;;;;4992644;28;20557;-51
2022/01/28 11:14:22;;;;;;;5.47;1.38;;;;;;;;;;4992810;28;20098;-49
2022/01/28 11:16:48;;;;;;;33.85;2.15;;;;;;;;;;4992190;28;20117;-49
2022/01/28 11:19:20;;;;;;;4.70;1.65;;;;;;;;;;4992468;28;20134;-46
2022/01/28 11:22:04;;;;;;;12.55;1.77;;;;;;;;;;4993001;28;20064;-46
2022/01/28 11:24:49;;;;;;;8.93;1.35;;;;;;;;;;4992837;28;20050;-51
2022/01/28 11:27:30;;;;;;;5.82;1.40;;;;;;;;;;4992713;28;20065;-47
2022/01/28 11:30:40;;;;;;;6.95;1.40;;;;;;;;;;4992508;28;20122;-50
2022/01/28 11:33:08;;;;;;;5.95;1.40;;;;;;;;;;4992038;28;20490;-53
2022/01/28 11:35:36;;;;;;;4.82;1.33;;;;;;;;;;4992434;28;20493;-53
2022/01/28 11:38:24;;;;;;;7.43;1.67;;;;;;;;;;4992587;28;20026;-50
2022/01/28 11:41:05;;;;;;;19.00;1.67;;;;;;;;;;4991874;28;20035;-46
2022/01/28 11:43:32;;;;;;;11.15;1.40;;;;;;;;;;4993624;28;20033;-47
2022/01/28 11:46:21;;;;;;;18.48;2.00;;;;;;;;;;4993683;28;20031;-51
2022/01/28 11:48:52;;;;;;;3.22;1.00;;;;;;;;;;4993969;28;20096;-45
2022/01/28 11:51:41;;;;;;;15.98;1.45;;;;;;;;;;4993577;28;20058;-50
2022/01/28 11:54:12;;;;;;;5.75;1.25;;;;;;;;;;4993911;28;20042;-44
2022/01/28 11:56:40;;;;;;;8.73;1.30;;;;;;;;;;4993125;28;20061;-46
2022/01/28 11:59:08;;;;;;;13.10;1.50;;;;;;;;;;4993785;28;20026;-48
2022/01/28 12:01:36;;;;;;;8.18;1.20;;;;;;;;;;4992912;28;20089;-45
2022/01/28 12:07:00;;;;;;;7.05;1.33;;;;;;;;;;4992086;28;20030;-47
2022/01/28 12:09:26;;;;;;;9.95;1.58;;;;;;;;;;4990778;28;20052;-44
2022/01/28 12:11:52;;;;;;;19.40;2.42;;;;;;;;;;4992967;28;20059;-49
2022/01/28 12:14:19;;;;;;;10.32;1.45;;;;;;;;;;4992920;28;20415;-50
2022/01/28 12:16:48;;;;;;;7.97;1.60;;;;;;;;;;4992533;28;20470;-46
2022/01/28 12:19:21;;;;;;;7.07;1.52;;;;;;;;;;4992988;28;20030;-45
2022/01/28 12:22:07;;;;;;;3.08;1.90;;;;;;;;;;4992904;28;20034;-48
2022/01/28 12:24:35;;;;;;;5.40;1.40;;;;;;;;;;4993313;28;20030;-50
2022/01/28 12:27:01;;;;;;;5.82;1.50;;;;;;;;;;4993073;28;20062;-45
2022/01/28 12:29:57;;;;;;;7.85;1.60;;;;;;;;;;4993055;28;20497;-49
2022/01/28 12:32:24;;;;;;;8.82;2.33;;;;;;;;;;4992809;28;20038;-48
2022/01/28 12:34:49;;;;;;;8.77;1.58;;;;;;;;;;4993379;28;20022;-46
2022/01/28 12:37:21;;;;;;;6.57;1.33;;;;;;;;;;4991669;28;20084;-46
2022/01/28 12:39:55;;;;;;;6.15;1.80;;;;;;;;;;4992987;28;20351;-50
2022/01/28 12:42:24;;;;;;;3.38;1.70;;;;;;;;;;4993448;28;20027;-46
2022/01/28 12:44:55;;;;;;;5.53;1.52;;;;;;;;;;4992855;28;20222;-45
2022/01/28 12:47:21;;;;;;;4.85;1.70;;;;;;;;;;4992881;28;20030;-47
2022/01/28 12:49:56;;;;;;;3.92;1.50;;;;;;;;;;4993169;28;20026;-44
2022/01/28 12:52:23;;;;;;;3.50;1.63;;;;;;;;;;4993167;28;20081;-45
2022/01/28 12:54:48;;;;;;;14.15;2.35;;;;;;;;;;4993207;28;20371;-44
2022/01/28 12:57:20;;;;;;;9.82;2.17;;;;;;;;;;4992907;28;20023;-45
2022/01/28 12:59:47;;;;;;;4.85;1.60;;;;;;;;;;4991351;28;20046;-49
2022/01/28 13:02:14;;;;;;;8.35;1.92;;;;;;;;;;4992855;28;20026;-48
2022/01/28 13:04:57;;;;;;;5.90;1.85;;;;;;;;;;4991556;28;20038;-50
2022/01/28 13:10:07;;;;;;;5.10;2.17;;;;;;;;;;4991441;28;20037;-44
2022/01/28 13:12:32;;;;;;;5.10;2.22;;;;;;;;;;4991235;28;20023;-49
2022/01/28 13:15:09;;;;;;;7.15;2.95;;;;;;;;;;4991130;28;20406;-45
2022/01/28 13:17:35;;;;;;;12.35;3.42;;;;;;;;;;4991582;28;20022;-45
2022/01/28 13:20:08;;;;;;;6.43;2.08;;;;;;;;;;4992941;28;20041;-43
2022/01/28 13:22:34;;;;;;;9.95;2.00;;;;;;;;;;4994734;28;20065;-43
2022/01/28 13:25:00;;;;;;;7.80;2.63;;;;;;;;;;4994895;28;20052;-42
2022/01/28 13:27:40;;;;;;;9.07;2.72;;;;;;;;;;4994781;28;20497;-44
2022/01/28 13:30:13;;;;;;;5.55;1.92;;;;;;;;;;4994639;28;20450;-47
2022/01/28 13:32:44;;;;;;;10.15;3.05;;;;;;;;;;4994746;28;20034;-44
2022/01/28 13:35:15;;;;;;;7.43;2.60;;;;;;;;;;4994771;28;20419;-46
2022/01/28 13:37:45;;;;;;;8.57;2.13;;;;;;;;;;4994763;28;20042;-44
2022/01/28 13:40:31;;;;;;;5.35;2.00;;;;;;;;;;4994274;28;20474;-43
2022/01/28 13:43:03;;;;;;;5.20;1.80;;;;;;;;;;4994531;28;20138;-42
2022/01/28 13:45:42;;;;;;;4.65;2.72;;;;;;;;;;4994378;28;20030;-47
2022/01/28 13:48:20;;;;;;;10.32;2.47;;;;;;;;;;4994383;28;20552;-45
2022/01/28 13:50:53;;;;;;;6.00;2.08;;;;;;;;;;4994262;28;20034;-48
2022/01/28 13:56:07;;;;;;;8.38;1.77;;;;;;;;;;4994368;28;20034;-45
2022/01/28 13:58:45;;;;;;;13.43;2.05;;;;;;;;;;4994362;28;20084;-46
2022/01/28 14:01:11;;;;;;;6.47;2.30;;;;;;;;;;4993858;28;20397;-46
2022/01/28 14:04:07;;;;;;;5.93;1.90;;;;;;;;;;4994250;28;20072;-45
2022/01/28 14:06:35;;;;;;;5.60;2.03;;;;;;;;;;4993428;28;20044;-50
2022/01/28 14:09:23;;;;;;;5.90;1.85;;;;;;;;;;4993892;28;20840;-46
2022/01/28 14:11:59;;;;;;;12.88;2.00;;;;;;;;;;4994060;28;20122;-47
2022/01/28 14:14:30;;;;;;;4.88;1.80;;;;;;;;;;4994258;28;20034;-46
2022/01/28 14:17:00;;;;;;;9.07;2.65;;;;;;;;;;4994155;28;20038;-46
2022/01/28 14:19:27;;;;;;;;;;;;;;;;;;4994116;28;20026;-44
2022/01/28 14:21:54;;;;;;;7.30;2.10;;;;;;;;;;4993787;28;19920;-46
2022/01/28 14:24:26;;;;;;;9.15;2.35;;;;;;;;;;4993946;28;20026;-43
2022/01/28 14:27:24;;;;;;;7.78;2.10;;;;;;;;;;4993632;28;20038;-46
2022/01/28 14:32:18;;;;;;;9.38;3.15;;;;;;;;;;4991989;28;20038;-46
2022/01/28 14:34:44;;;;;;;7.75;3.25;;;;;;;;;;4993518;28;20026;-47
2022/01/28 14:37:09;;;;;;;8.38;3.53;;;;;;;;;;4993432;28;20101;-47
2022/01/28 14:39:37;;;;;;;6.38;2.00;;;;;;;;;;4993533;28;20137;-48
2022/01/28 14:42:04;;;;;;;9.45;3.70;;;;;;;;;;4993480;28;20637;-46
2022/01/28 14:44:36;;;;;;;5.07;2.78;;;;;;;;;;4993452;28;20436;-50
2022/01/28 14:47:03;;;;;;;3.58;2.30;;;;;;;;;;4993310;28;20037;-45
2022/01/28 14:49:29;;;;;;;6.95;1.90;;;;;;;;;;4993178;28;20117;-44
2022/01/28 14:51:57;;;;;;;4.90;2.72;;;;;;;;;;4993059;28;20138;-46
2022/01/28 14:54:26;;;;;;;4.63;2.10;;;;;;;;;;4993432;28;20027;-49
2022/01/28 14:56:55;;;;;;;7.10;1.88;;;;;;;;;;4993210;28;20030;-43
2022/01/28 14:59:21;;;;;;;10.90;2.67;;;;;;;;;;4993197;28;20031;-46
2022/01/28 15:01:47;;;;;;;5.90;2.45;;;;;;;;;;4992941;28;20088;-44
2022/01/28 15:04:13;;;;;;;3.58;2.33;;;;;;;;;;4992658;28;20053;-46
2022/01/28 15:06:39;;;;;;;6.63;2.33;;;;;;;;;;4992721;28;20065;-45
2022/01/28 15:09:05;;;;;;;11.77;2.58;;;;;;;;;;4993008;28;20022;-44
2022/01/28 15:14:08;;;;;;;8.10;2.85;;;;;;;;;;4992745;28;20053;-45
2022/01/28 15:16:34;;;;;;;11.88;2.97;;;;;;;;;;4992917;28;20062;-46
2022/01/28 15:19:00;;;;;;;7.53;3.55;;;;;;;;;;4992954;28;20031;-45
2022/01/28 15:21:25;;;;;;;7.95;3.28;;;;;;;;;;4992595;28;20053;-43
2022/01/28 15:23:51;;;;;;;10.40;3.03;;;;;;;;;;4992329;28;20058;-45
2022/01/28 15:26:16;;;;;;;4.90;2.08;;;;;;;;;;4992670;28;20073;-44
2022/01/28 15:28:59;;;;;;;10.55;3.22;;;;;;;;;;4992585;28;20049;-43
2022/01/28 15:36:43;;;;;;;6.18;2.88;;;;;;;;;;4992897;28;20026;-47
2022/01/28 15:39:09;;;;;;;5.05;2.58;;;;;;;;;;4993861;28;20489;-48
2022/01/28 15:41:34;;;;;;;7.60;3.30;;;;;;;;;;4993705;28;20033;-46
2022/01/28 15:44:00;;;;;;;4.57;2.60;;;;;;;;;;4993920;28;20034;-45
2022/01/28 15:46:25;;;;;;;4.43;2.38;;;;;;;;;;4993766;28;20022;-44
2022/01/28 15:48:51;;;;;;;3.45;2.67;;;;;;;;;;4994000;28;20056;-45
2022/01/28 15:51:16;;;;;;;10.55;5.10;;;;;;;;;;4994012;28;20022;-43
2022/01/28 15:53:42;;;;;;;14.95;9.48;;;;;;;;;;4993981;28;20480;-43
2022/01/28 15:56:07;;;;;;;13.88;9.32;;;;;;;;;;4993528;28;20022;-44
2022/01/28 15:58:32;;;;;;;13.50;7.93;;;;;;;;;;4993887;28;20034;-44
2022/01/28 16:00:58;;;;;;;17.65;7.63;;;;;;;;;;4993446;28;20041;-45
2022/01/28 16:03:23;;;;;;;48.15;19.58;;;;;;;;;;4993748;28;20109;-46
2022/01/28 16:05:49;;;;;;;84.38;35.35;;;;;;;;;;4993464;28;20022;-45
2022/01/28 16:08:15;;;;;;;56.72;16.38;;;;;;;;;;4991772;28;20076;-41
2022/01/28 16:10:56;;;;;;;25.67;10.27;;;;;;;;;;4991567;28;20030;-43
2022/01/28 16:13:29;;;;;;;26.88;12.38;;;;;;;;;;4991932;28;20054;-41
2022/01/28 16:18:23;;;;;;;6.40;2.70;;;;;;;;;;4991132;28;20026;-41
2022/01/28 16:20:48;;;;;;;7.82;2.15;;;;;;;;;;4991561;28;20520;-42
2022/01/28 16:23:14;;;;;;;15.57;4.13;;;;;;;;;;4991512;28;20042;-42
2022/01/28 16:25:39;;;;;;;7.07;2.97;;;;;;;;;;4991266;28;20038;-44
2022/01/28 16:28:05;;;;;;;8.57;2.65;;;;;;;;;;4991509;28;20053;-44
2022/01/28 16:30:30;;;;;;;6.53;3.60;;;;;;;;;;4990063;28;20116;-42
2022/01/28 16:32:56;;;;;;;9.95;3.70;;;;;;;;;;4991223;28;20065;-43
2022/01/28 16:35:22;;;;;;;6.82;3.55;;;;;;;;;;4991536;28;20145;-43
2022/01/28 16:37:47;;;;;;;7.55;4.00;;;;;;;;;;4991484;28;20058;-42
2022/01/28 16:40:16;;;;;;;8.20;4.85;;;;;;;;;;4991612;28;20037;-42
2022/01/28 16:42:51;;;;;;;11.10;4.85;;;;;;;;;;4991081;28;20351;-42
2022/01/28 16:45:17;;;;;;;7.95;3.53;;;;;;;;;;4991282;28;20050;-41